sensor_id;sensor_type;location;lat;lon;timestamp;P1;durP1;ratioP1;P2;durP2;ratioP2
12369;SDS011;6249;52.128;9.986;2023-04-25T00:01:52;19.10;;;5.73;;
12369;SDS011;6249;52.128;9.986;2023-04-25T00:05:12;12.03;;;5.40;;
12369;SDS011;6249;52.128;9.986;2023-04-25T00:08:39;15.37;;;5.37;;
12369;SDS011;6249;52.128;9.986;2023-04-25T00:12:02;13.63;;;5.27;;
12369;SDS011;6249;52.128;9.986;2023-04-25T00:15:26;10.50;;;5.00;;
12369;SDS011;6249;52.128;9.986;2023-04-25T00:18:50;12.97;;;5.67;;
12369;SDS011;6249;52.128;9.986;2023-04-25T00:22:16;14.57;;;4.67;;
12369;SDS011;6249;52.128;9.986;2023-04-25T00:25:37;19.33;;;5.67;;
12369;SDS011;6249;52.128;9.986;2023-04-25T00:29:02;30.50;;;7.67;;
12369;SDS011;6249;52.128;9.986;2023-04-25T00:32:25;17.60;;;5.43;;
12369;SDS011;6249;52.128;9.986;2023-04-25T00:35:46;15.90;;;5.70;;
12369;SDS011;6249;52.128;9.986;2023-04-25T00:39:09;23.20;;;6.10;;
12369;SDS011;6249;52.128;9.986;2023-04-25T00:42:29;16.07;;;6.13;;
12369;SDS011;6249;52.128;9.986;2023-04-25T00:45:51;16.83;;;5.83;;
12369;SDS011;6249;52.128;9.986;2023-04-25T00:49:12;25.13;;;7.83;;
12369;SDS011;6249;52.128;9.986;2023-04-25T00:52:36;14.87;;;5.23;;
12369;SDS011;6249;52.128;9.986;2023-04-25T00:56:05;16.33;;;6.70;;
12369;SDS011;6249;52.128;9.986;2023-04-25T00:59:26;14.43;;;5.30;;
12369;SDS011;6249;52.128;9.986;2023-04-25T01:02:50;18.77;;;5.77;;
12369;SDS011;6249;52.128;9.986;2023-04-25T01:06:16;24.97;;;7.50;;
12369;SDS011;6249;52.128;9.986;2023-04-25T01:09:37;19.27;;;6.47;;
12369;SDS011;6249;52.128;9.986;2023-04-25T01:12:58;23.47;;;6.30;;
12369;SDS011;6249;52.128;9.986;2023-04-25T01:16:21;18.10;;;6.70;;
12369;SDS011;6249;52.128;9.986;2023-04-25T01:19:43;19.93;;;6.57;;
12369;SDS011;6249;52.128;9.986;2023-04-25T01:23:06;16.53;;;6.50;;
12369;SDS011;6249;52.128;9.986;2023-04-25T01:26:26;18.80;;;6.70;;
12369;SDS011;6249;52.128;9.986;2023-04-25T01:29:50;18.30;;;6.33;;
12369;SDS011;6249;52.128;9.986;2023-04-25T01:33:10;23.30;;;7.47;;
12369;SDS011;6249;52.128;9.986;2023-04-25T01:36:34;22.40;;;6.83;;
12369;SDS011;6249;52.128;9.986;2023-04-25T01:39:55;19.33;;;7.10;;
12369;SDS011;6249;52.128;9.986;2023-04-25T01:43:15;20.50;;;8.03;;
12369;SDS011;6249;52.128;9.986;2023-04-25T01:46:36;15.80;;;6.67;;
12369;SDS011;6249;52.128;9.986;2023-04-25T01:49:57;14.83;;;7.57;;
12369;SDS011;6249;52.128;9.986;2023-04-25T01:53:18;21.97;;;7.33;;
12369;SDS011;6249;52.128;9.986;2023-04-25T01:56:39;24.30;;;7.67;;
12369;SDS011;6249;52.128;9.986;2023-04-25T02:00:01;18.50;;;7.27;;
12369;SDS011;6249;52.128;9.986;2023-04-25T02:03:25;24.43;;;7.83;;
12369;SDS011;6249;52.128;9.986;2023-04-25T02:06:48;21.43;;;7.47;;
12369;SDS011;6249;52.128;9.986;2023-04-25T02:10:09;20.10;;;8.43;;
12369;SDS011;6249;52.128;9.986;2023-04-25T02:13:30;18.70;;;7.00;;
12369;SDS011;6249;52.128;9.986;2023-04-25T02:16:53;26.60;;;6.97;;
12369;SDS011;6249;52.128;9.986;2023-04-25T02:20:14;16.73;;;7.93;;
12369;SDS011;6249;52.128;9.986;2023-04-25T02:23:35;20.77;;;7.60;;
12369;SDS011;6249;52.128;9.986;2023-04-25T02:27:01;22.63;;;7.97;;
12369;SDS011;6249;52.128;9.986;2023-04-25T02:30:22;15.13;;;7.00;;
12369;SDS011;6249;52.128;9.986;2023-04-25T02:33:45;25.77;;;9.07;;
12369;SDS011;6249;52.128;9.986;2023-04-25T02:37:06;25.33;;;8.93;;
12369;SDS011;6249;52.128;9.986;2023-04-25T02:40:26;21.57;;;9.00;;
12369;SDS011;6249;52.128;9.986;2023-04-25T02:43:49;16.87;;;8.60;;
12369;SDS011;6249;52.128;9.986;2023-04-25T02:47:14;22.07;;;8.50;;
12369;SDS011;6249;52.128;9.986;2023-04-25T02:50:39;25.23;;;10.60;;
12369;SDS011;6249;52.128;9.986;2023-04-25T02:54:00;26.50;;;10.33;;
12369;SDS011;6249;52.128;9.986;2023-04-25T02:57:23;24.83;;;9.33;;
12369;SDS011;6249;52.128;9.986;2023-04-25T03:00:43;23.17;;;9.87;;
12369;SDS011;6249;52.128;9.986;2023-04-25T03:04:04;20.30;;;9.73;;
12369;SDS011;6249;52.128;9.986;2023-04-25T03:07:24;26.00;;;11.80;;
12369;SDS011;6249;52.128;9.986;2023-04-25T03:10:48;29.27;;;11.33;;
12369;SDS011;6249;52.128;9.986;2023-04-25T03:14:10;25.23;;;10.97;;
12369;SDS011;6249;52.128;9.986;2023-04-25T03:17:31;19.33;;;10.47;;
12369;SDS011;6249;52.128;9.986;2023-04-25T03:20:51;20.10;;;9.47;;
12369;SDS011;6249;52.128;9.986;2023-04-25T03:24:12;22.57;;;9.93;;
12369;SDS011;6249;52.128;9.986;2023-04-25T03:27:33;19.33;;;8.60;;
12369;SDS011;6249;52.128;9.986;2023-04-25T03:30:53;25.60;;;7.27;;
12369;SDS011;6249;52.128;9.986;2023-04-25T03:34:14;49.13;;;8.47;;
12369;SDS011;6249;52.128;9.986;2023-04-25T03:37:34;29.47;;;8.07;;
12369;SDS011;6249;52.128;9.986;2023-04-25T03:40:57;33.70;;;7.57;;
12369;SDS011;6249;52.128;9.986;2023-04-25T03:44:18;28.20;;;6.90;;
12369;SDS011;6249;52.128;9.986;2023-04-25T03:47:38;25.20;;;6.80;;
12369;SDS011;6249;52.128;9.986;2023-04-25T03:50:59;21.93;;;5.73;;
12369;SDS011;6249;52.128;9.986;2023-04-25T03:54:22;15.37;;;5.47;;
12369;SDS011;6249;52.128;9.986;2023-04-25T03:57:43;33.57;;;7.13;;
12369;SDS011;6249;52.128;9.986;2023-04-25T04:01:03;25.77;;;6.10;;
12369;SDS011;6249;52.128;9.986;2023-04-25T04:04:27;22.83;;;5.80;;
12369;SDS011;6249;52.128;9.986;2023-04-25T04:07:52;29.47;;;6.10;;
12369;SDS011;6249;52.128;9.986;2023-04-25T04:11:16;32.87;;;6.83;;
12369;SDS011;6249;52.128;9.986;2023-04-25T04:14:36;26.47;;;6.80;;
12369;SDS011;6249;52.128;9.986;2023-04-25T04:17:57;24.13;;;6.00;;
12369;SDS011;6249;52.128;9.986;2023-04-25T04:21:22;32.10;;;5.50;;
12369;SDS011;6249;52.128;9.986;2023-04-25T04:24:42;36.57;;;6.10;;
12369;SDS011;6249;52.128;9.986;2023-04-25T04:28:06;23.60;;;5.80;;
12369;SDS011;6249;52.128;9.986;2023-04-25T04:31:29;31.20;;;5.20;;
12369;SDS011;6249;52.128;9.986;2023-04-25T04:34:50;26.23;;;5.87;;
12369;SDS011;6249;52.128;9.986;2023-04-25T04:38:12;24.37;;;6.30;;
12369;SDS011;6249;52.128;9.986;2023-04-25T04:41:35;30.43;;;6.80;;
12369;SDS011;6249;52.128;9.986;2023-04-25T04:44:55;30.33;;;6.87;;
12369;SDS011;6249;52.128;9.986;2023-04-25T04:48:19;27.57;;;6.27;;
12369;SDS011;6249;52.128;9.986;2023-04-25T04:51:41;24.70;;;6.30;;
12369;SDS011;6249;52.128;9.986;2023-04-25T04:55:04;26.97;;;5.00;;
12369;SDS011;6249;52.128;9.986;2023-04-25T04:58:25;37.73;;;5.70;;
12369;SDS011;6249;52.128;9.986;2023-04-25T05:01:48;27.63;;;6.00;;
12369;SDS011;6249;52.128;9.986;2023-04-25T05:05:11;24.43;;;5.33;;
12369;SDS011;6249;52.128;9.986;2023-04-25T05:08:31;25.63;;;5.40;;
12369;SDS011;6249;52.128;9.986;2023-04-25T05:11:52;26.63;;;6.17;;
12369;SDS011;6249;52.128;9.986;2023-04-25T05:15:13;34.43;;;6.60;;
12369;SDS011;6249;52.128;9.986;2023-04-25T05:18:34;52.70;;;7.43;;
12369;SDS011;6249;52.128;9.986;2023-04-25T05:21:55;29.30;;;5.90;;
12369;SDS011;6249;52.128;9.986;2023-04-25T05:25:15;24.23;;;5.43;;
12369;SDS011;6249;52.128;9.986;2023-04-25T05:28:39;33.23;;;5.40;;
12369;SDS011;6249;52.128;9.986;2023-04-25T05:32:01;33.57;;;5.87;;
12369;SDS011;6249;52.128;9.986;2023-04-25T05:35:26;24.13;;;5.10;;
12369;SDS011;6249;52.128;9.986;2023-04-25T05:38:46;29.37;;;6.17;;
12369;SDS011;6249;52.128;9.986;2023-04-25T05:42:11;24.50;;;4.60;;
12369;SDS011;6249;52.128;9.986;2023-04-25T05:45:34;33.53;;;4.37;;
12369;SDS011;6249;52.128;9.986;2023-04-25T05:48:57;25.30;;;5.47;;
12369;SDS011;6249;52.128;9.986;2023-04-25T05:52:18;24.63;;;4.60;;
12369;SDS011;6249;52.128;9.986;2023-04-25T05:55:38;24.47;;;5.33;;
12369;SDS011;6249;52.128;9.986;2023-04-25T05:58:59;23.20;;;3.90;;
12369;SDS011;6249;52.128;9.986;2023-04-25T06:02:23;20.50;;;4.60;;
12369;SDS011;6249;52.128;9.986;2023-04-25T06:05:43;26.40;;;5.40;;
12369;SDS011;6249;52.128;9.986;2023-04-25T06:09:04;22.37;;;5.57;;
12369;SDS011;6249;52.128;9.986;2023-04-25T06:12:24;20.00;;;3.80;;
12369;SDS011;6249;52.128;9.986;2023-04-25T06:15:45;32.63;;;5.87;;
12369;SDS011;6249;52.128;9.986;2023-04-25T06:19:06;30.83;;;4.70;;
12369;SDS011;6249;52.128;9.986;2023-04-25T06:22:28;20.33;;;3.70;;
12369;SDS011;6249;52.128;9.986;2023-04-25T06:25:49;32.63;;;3.90;;
12369;SDS011;6249;52.128;9.986;2023-04-25T06:29:09;21.23;;;3.97;;
12369;SDS011;6249;52.128;9.986;2023-04-25T06:32:32;24.30;;;3.93;;
12369;SDS011;6249;52.128;9.986;2023-04-25T06:35:57;34.97;;;4.30;;
12369;SDS011;6249;52.128;9.986;2023-04-25T06:39:20;18.20;;;5.07;;
12369;SDS011;6249;52.128;9.986;2023-04-25T06:42:45;18.13;;;3.30;;
12369;SDS011;6249;52.128;9.986;2023-04-25T06:46:08;24.63;;;3.80;;
12369;SDS011;6249;52.128;9.986;2023-04-25T06:49:28;31.17;;;4.13;;
12369;SDS011;6249;52.128;9.986;2023-04-25T06:52:49;21.20;;;3.50;;
12369;SDS011;6249;52.128;9.986;2023-04-25T06:56:12;26.03;;;4.40;;
12369;SDS011;6249;52.128;9.986;2023-04-25T06:59:32;23.90;;;3.30;;
12369;SDS011;6249;52.128;9.986;2023-04-25T07:02:53;18.67;;;3.80;;
12369;SDS011;6249;52.128;9.986;2023-04-25T07:06:13;17.43;;;3.90;;
12369;SDS011;6249;52.128;9.986;2023-04-25T07:09:34;21.47;;;4.30;;
12369;SDS011;6249;52.128;9.986;2023-04-25T07:12:55;26.30;;;4.30;;
12369;SDS011;6249;52.128;9.986;2023-04-25T07:16:17;22.23;;;4.03;;
12369;SDS011;6249;52.128;9.986;2023-04-25T07:19:38;29.17;;;5.60;;
12369;SDS011;6249;52.128;9.986;2023-04-25T07:22:59;18.60;;;3.43;;
12369;SDS011;6249;52.128;9.986;2023-04-25T07:26:22;24.50;;;3.87;;
12369;SDS011;6249;52.128;9.986;2023-04-25T07:29:43;22.23;;;3.63;;
12369;SDS011;6249;52.128;9.986;2023-04-25T07:33:03;25.73;;;3.83;;
12369;SDS011;6249;52.128;9.986;2023-04-25T07:36:26;17.67;;;3.27;;
12369;SDS011;6249;52.128;9.986;2023-04-25T07:39:49;21.27;;;2.90;;
12369;SDS011;6249;52.128;9.986;2023-04-25T07:43:12;19.07;;;2.47;;
12369;SDS011;6249;52.128;9.986;2023-04-25T07:46:36;10.13;;;2.30;;
12369;SDS011;6249;52.128;9.986;2023-04-25T07:49:56;15.60;;;3.10;;
12369;SDS011;6249;52.128;9.986;2023-04-25T07:53:20;13.23;;;2.80;;
12369;SDS011;6249;52.128;9.986;2023-04-25T07:56:45;11.20;;;2.73;;
12369;SDS011;6249;52.128;9.986;2023-04-25T08:00:06;11.37;;;2.13;;
12369;SDS011;6249;52.128;9.986;2023-04-25T08:03:29;13.40;;;2.80;;
12369;SDS011;6249;52.128;9.986;2023-04-25T08:06:52;8.83;;;2.00;;
12369;SDS011;6249;52.128;9.986;2023-04-25T08:10:18;10.10;;;2.33;;
12369;SDS011;6249;52.128;9.986;2023-04-25T08:13:38;9.00;;;2.30;;
12369;SDS011;6249;52.128;9.986;2023-04-25T08:16:59;11.97;;;3.20;;
12369;SDS011;6249;52.128;9.986;2023-04-25T08:20:20;15.00;;;4.20;;
12369;SDS011;6249;52.128;9.986;2023-04-25T08:23:40;14.33;;;3.30;;
12369;SDS011;6249;52.128;9.986;2023-04-25T08:27:01;16.57;;;3.10;;
12369;SDS011;6249;52.128;9.986;2023-04-25T08:30:22;12.43;;;3.33;;
12369;SDS011;6249;52.128;9.986;2023-04-25T08:33:45;15.43;;;2.33;;
12369;SDS011;6249;52.128;9.986;2023-04-25T08:37:09;11.70;;;2.53;;
12369;SDS011;6249;52.128;9.986;2023-04-25T08:40:30;8.50;;;2.07;;
12369;SDS011;6249;52.128;9.986;2023-04-25T08:43:57;9.03;;;2.20;;
12369;SDS011;6249;52.128;9.986;2023-04-25T08:47:21;5.70;;;1.70;;
12369;SDS011;6249;52.128;9.986;2023-04-25T08:50:51;16.00;;;2.87;;
12369;SDS011;6249;52.128;9.986;2023-04-25T08:54:14;6.70;;;2.63;;
12369;SDS011;6249;52.128;9.986;2023-04-25T08:57:35;10.93;;;2.80;;
12369;SDS011;6249;52.128;9.986;2023-04-25T09:00:55;6.27;;;2.37;;
12369;SDS011;6249;52.128;9.986;2023-04-25T09:04:17;11.00;;;2.50;;
12369;SDS011;6249;52.128;9.986;2023-04-25T09:07:43;13.27;;;2.60;;
12369;SDS011;6249;52.128;9.986;2023-04-25T09:11:08;7.50;;;1.93;;
12369;SDS011;6249;52.128;9.986;2023-04-25T09:14:29;15.40;;;3.03;;
12369;SDS011;6249;52.128;9.986;2023-04-25T09:17:59;10.67;;;2.43;;
12369;SDS011;6249;52.128;9.986;2023-04-25T09:21:21;9.87;;;2.10;;
12369;SDS011;6249;52.128;9.986;2023-04-25T09:24:45;7.40;;;1.87;;
12369;SDS011;6249;52.128;9.986;2023-04-25T09:28:07;25.87;;;2.70;;
12369;SDS011;6249;52.128;9.986;2023-04-25T09:31:31;7.30;;;2.20;;
12369;SDS011;6249;52.128;9.986;2023-04-25T09:34:56;15.30;;;2.70;;
12369;SDS011;6249;52.128;9.986;2023-04-25T09:38:17;7.60;;;2.07;;
12369;SDS011;6249;52.128;9.986;2023-04-25T09:41:43;10.57;;;2.50;;
12369;SDS011;6249;52.128;9.986;2023-04-25T09:45:05;17.97;;;2.47;;
12369;SDS011;6249;52.128;9.986;2023-04-25T09:48:27;9.47;;;2.20;;
12369;SDS011;6249;52.128;9.986;2023-04-25T09:51:54;13.27;;;3.10;;
12369;SDS011;6249;52.128;9.986;2023-04-25T09:55:20;13.17;;;2.83;;
12369;SDS011;6249;52.128;9.986;2023-04-25T09:58:41;20.27;;;2.70;;
12369;SDS011;6249;52.128;9.986;2023-04-25T10:02:02;9.73;;;1.90;;
12369;SDS011;6249;52.128;9.986;2023-04-25T10:05:23;11.63;;;2.40;;
12369;SDS011;6249;52.128;9.986;2023-04-25T10:08:47;17.40;;;2.97;;
12369;SDS011;6249;52.128;9.986;2023-04-25T10:12:16;8.90;;;2.33;;
12369;SDS011;6249;52.128;9.986;2023-04-25T10:15:42;13.97;;;2.93;;
12369;SDS011;6249;52.128;9.986;2023-04-25T10:19:03;10.73;;;2.13;;
12369;SDS011;6249;52.128;9.986;2023-04-25T10:22:37;15.77;;;3.83;;
12369;SDS011;6249;52.128;9.986;2023-04-25T10:26:02;6.40;;;1.80;;
12369;SDS011;6249;52.128;9.986;2023-04-25T10:29:24;10.30;;;2.50;;
12369;SDS011;6249;52.128;9.986;2023-04-25T10:32:45;9.43;;;2.50;;
12369;SDS011;6249;52.128;9.986;2023-04-25T10:36:08;8.23;;;2.17;;
12369;SDS011;6249;52.128;9.986;2023-04-25T10:39:30;11.73;;;2.17;;
12369;SDS011;6249;52.128;9.986;2023-04-25T10:42:52;14.10;;;2.80;;
12369;SDS011;6249;52.128;9.986;2023-04-25T10:49:42;9.40;;;1.97;;
12369;SDS011;6249;52.128;9.986;2023-04-25T10:53:13;11.20;;;2.63;;
12369;SDS011;6249;52.128;9.986;2023-04-25T10:56:38;6.70;;;1.60;;
12369;SDS011;6249;52.128;9.986;2023-04-25T11:03:39;17.53;;;2.23;;
12369;SDS011;6249;52.128;9.986;2023-04-25T11:10:39;7.53;;;1.80;;
12369;SDS011;6249;52.128;9.986;2023-04-25T11:14:02;10.13;;;2.90;;
12369;SDS011;6249;52.128;9.986;2023-04-25T11:17:24;12.23;;;2.13;;
12369;SDS011;6249;52.128;9.986;2023-04-25T11:20:47;8.60;;;1.93;;
12369;SDS011;6249;52.128;9.986;2023-04-25T11:24:12;9.73;;;2.67;;
12369;SDS011;6249;52.128;9.986;2023-04-25T11:27:37;9.00;;;1.77;;
12369;SDS011;6249;52.128;9.986;2023-04-25T11:31:21;11.47;;;2.10;;
12369;SDS011;6249;52.128;9.986;2023-04-25T11:34:42;9.40;;;2.23;;
12369;SDS011;6249;52.128;9.986;2023-04-25T11:38:06;14.73;;;3.00;;
12369;SDS011;6249;52.128;9.986;2023-04-25T11:41:27;13.27;;;2.10;;
12369;SDS011;6249;52.128;9.986;2023-04-25T11:44:50;10.73;;;2.30;;
12369;SDS011;6249;52.128;9.986;2023-04-25T11:48:14;13.60;;;2.97;;
12369;SDS011;6249;52.128;9.986;2023-04-25T11:51:52;9.23;;;1.90;;
12369;SDS011;6249;52.128;9.986;2023-04-25T11:55:16;8.10;;;2.60;;
12369;SDS011;6249;52.128;9.986;2023-04-25T12:02:24;14.03;;;2.13;;
12369;SDS011;6249;52.128;9.986;2023-04-25T12:05:46;6.93;;;3.23;;
12369;SDS011;6249;52.128;9.986;2023-04-25T12:09:08;7.60;;;1.93;;
12369;SDS011;6249;52.128;9.986;2023-04-25T12:12:34;10.70;;;2.20;;
12369;SDS011;6249;52.128;9.986;2023-04-25T12:15:55;7.43;;;1.93;;
12369;SDS011;6249;52.128;9.986;2023-04-25T12:19:16;11.27;;;2.30;;
12369;SDS011;6249;52.128;9.986;2023-04-25T12:22:38;8.13;;;1.80;;
12369;SDS011;6249;52.128;9.986;2023-04-25T12:26:04;6.33;;;1.70;;
12369;SDS011;6249;52.128;9.986;2023-04-25T12:29:28;7.87;;;1.50;;
12369;SDS011;6249;52.128;9.986;2023-04-25T12:32:50;9.07;;;2.00;;
12369;SDS011;6249;52.128;9.986;2023-04-25T12:36:10;8.73;;;2.10;;
12369;SDS011;6249;52.128;9.986;2023-04-25T12:39:33;13.37;;;2.27;;
12369;SDS011;6249;52.128;9.986;2023-04-25T12:42:54;6.67;;;1.83;;
12369;SDS011;6249;52.128;9.986;2023-04-25T12:46:15;11.93;;;2.20;;
12369;SDS011;6249;52.128;9.986;2023-04-25T12:49:35;20.50;;;3.43;;
12369;SDS011;6249;52.128;9.986;2023-04-25T12:52:56;6.47;;;2.07;;
12369;SDS011;6249;52.128;9.986;2023-04-25T12:56:16;6.17;;;1.80;;
12369;SDS011;6249;52.128;9.986;2023-04-25T12:59:37;5.83;;;1.90;;
12369;SDS011;6249;52.128;9.986;2023-04-25T13:02:58;5.30;;;1.80;;
12369;SDS011;6249;52.128;9.986;2023-04-25T13:06:19;7.73;;;2.13;;
12369;SDS011;6249;52.128;9.986;2023-04-25T13:09:40;8.80;;;2.33;;
12369;SDS011;6249;52.128;9.986;2023-04-25T13:13:03;5.40;;;1.73;;
12369;SDS011;6249;52.128;9.986;2023-04-25T13:16:24;5.93;;;1.50;;
12369;SDS011;6249;52.128;9.986;2023-04-25T13:19:44;4.60;;;1.10;;
12369;SDS011;6249;52.128;9.986;2023-04-25T13:23:05;6.20;;;2.10;;
12369;SDS011;6249;52.128;9.986;2023-04-25T13:26:28;5.23;;;1.47;;
12369;SDS011;6249;52.128;9.986;2023-04-25T13:29:49;6.60;;;1.63;;
12369;SDS011;6249;52.128;9.986;2023-04-25T13:33:10;5.07;;;1.20;;
12369;SDS011;6249;52.128;9.986;2023-04-25T13:36:30;8.30;;;1.87;;
12369;SDS011;6249;52.128;9.986;2023-04-25T13:39:51;11.33;;;1.97;;
12369;SDS011;6249;52.128;9.986;2023-04-25T13:43:15;8.77;;;1.60;;
12369;SDS011;6249;52.128;9.986;2023-04-25T13:46:36;4.03;;;1.20;;
12369;SDS011;6249;52.128;9.986;2023-04-25T13:49:59;5.50;;;1.80;;
12369;SDS011;6249;52.128;9.986;2023-04-25T13:53:22;8.63;;;2.50;;
12369;SDS011;6249;52.128;9.986;2023-04-25T13:56:43;5.10;;;1.70;;
12369;SDS011;6249;52.128;9.986;2023-04-25T14:00:07;9.30;;;1.90;;
12369;SDS011;6249;52.128;9.986;2023-04-25T14:03:33;12.80;;;2.30;;
12369;SDS011;6249;52.128;9.986;2023-04-25T14:06:54;5.10;;;1.83;;
12369;SDS011;6249;52.128;9.986;2023-04-25T14:10:15;10.53;;;1.83;;
12369;SDS011;6249;52.128;9.986;2023-04-25T14:13:37;6.77;;;1.40;;
12369;SDS011;6249;52.128;9.986;2023-04-25T14:16:58;5.93;;;1.63;;
12369;SDS011;6249;52.128;9.986;2023-04-25T14:20:21;5.93;;;1.53;;
12369;SDS011;6249;52.128;9.986;2023-04-25T14:23:43;3.90;;;1.33;;
12369;SDS011;6249;52.128;9.986;2023-04-25T14:27:04;5.63;;;1.50;;
12369;SDS011;6249;52.128;9.986;2023-04-25T14:30:25;7.20;;;1.90;;
12369;SDS011;6249;52.128;9.986;2023-04-25T14:33:45;6.57;;;1.97;;
12369;SDS011;6249;52.128;9.986;2023-04-25T14:37:06;7.50;;;1.53;;
12369;SDS011;6249;52.128;9.986;2023-04-25T14:40:27;9.57;;;1.80;;
12369;SDS011;6249;52.128;9.986;2023-04-25T14:43:47;5.23;;;1.60;;
12369;SDS011;6249;52.128;9.986;2023-04-25T14:47:08;7.37;;;2.30;;
12369;SDS011;6249;52.128;9.986;2023-04-25T14:50:29;5.63;;;1.50;;
12369;SDS011;6249;52.128;9.986;2023-04-25T14:53:52;11.73;;;2.20;;
12369;SDS011;6249;52.128;9.986;2023-04-25T14:57:18;8.40;;;2.13;;
12369;SDS011;6249;52.128;9.986;2023-04-25T15:00:38;12.73;;;2.40;;
12369;SDS011;6249;52.128;9.986;2023-04-25T15:03:59;6.00;;;1.50;;
12369;SDS011;6249;52.128;9.986;2023-04-25T15:07:23;5.07;;;1.37;;
12369;SDS011;6249;52.128;9.986;2023-04-25T15:10:43;8.93;;;1.90;;
12369;SDS011;6249;52.128;9.986;2023-04-25T15:14:08;4.93;;;1.40;;
12369;SDS011;6249;52.128;9.986;2023-04-25T15:17:31;7.70;;;2.30;;
12369;SDS011;6249;52.128;9.986;2023-04-25T15:20:52;4.33;;;1.80;;
12369;SDS011;6249;52.128;9.986;2023-04-25T15:24:15;5.13;;;1.63;;
12369;SDS011;6249;52.128;9.986;2023-04-25T15:27:36;5.67;;;1.60;;
12369;SDS011;6249;52.128;9.986;2023-04-25T15:31:02;4.60;;;1.90;;
12369;SDS011;6249;52.128;9.986;2023-04-25T15:34:25;6.00;;;1.87;;
12369;SDS011;6249;52.128;9.986;2023-04-25T15:37:48;4.87;;;1.80;;
12369;SDS011;6249;52.128;9.986;2023-04-25T15:41:10;6.37;;;1.70;;
12369;SDS011;6249;52.128;9.986;2023-04-25T15:44:32;4.27;;;1.50;;
12369;SDS011;6249;52.128;9.986;2023-04-25T15:47:54;9.47;;;1.67;;
12369;SDS011;6249;52.128;9.986;2023-04-25T15:51:16;7.77;;;1.50;;
12369;SDS011;6249;52.128;9.986;2023-04-25T15:54:39;6.40;;;1.57;;
12369;SDS011;6249;52.128;9.986;2023-04-25T15:58:00;9.70;;;1.83;;
12369;SDS011;6249;52.128;9.986;2023-04-25T16:01:20;5.20;;;1.73;;
12369;SDS011;6249;52.128;9.986;2023-04-25T16:04:45;8.80;;;1.93;;
12369;SDS011;6249;52.128;9.986;2023-04-25T16:08:06;9.03;;;1.83;;
12369;SDS011;6249;52.128;9.986;2023-04-25T16:11:27;8.93;;;2.13;;
12369;SDS011;6249;52.128;9.986;2023-04-25T16:14:50;14.20;;;2.10;;
12369;SDS011;6249;52.128;9.986;2023-04-25T16:18:10;7.27;;;2.00;;
12369;SDS011;6249;52.128;9.986;2023-04-25T16:21:31;12.57;;;1.93;;
12369;SDS011;6249;52.128;9.986;2023-04-25T16:24:51;4.77;;;1.80;;
12369;SDS011;6249;52.128;9.986;2023-04-25T16:28:15;8.50;;;2.27;;
12369;SDS011;6249;52.128;9.986;2023-04-25T16:31:38;8.53;;;1.90;;
12369;SDS011;6249;52.128;9.986;2023-04-25T16:34:58;14.47;;;2.00;;
12369;SDS011;6249;52.128;9.986;2023-04-25T16:38:19;5.70;;;1.40;;
12369;SDS011;6249;52.128;9.986;2023-04-25T16:41:40;7.73;;;2.20;;
12369;SDS011;6249;52.128;9.986;2023-04-25T16:45:03;12.60;;;1.83;;
12369;SDS011;6249;52.128;9.986;2023-04-25T16:48:24;6.63;;;1.53;;
12369;SDS011;6249;52.128;9.986;2023-04-25T16:51:45;7.07;;;1.50;;
12369;SDS011;6249;52.128;9.986;2023-04-25T16:55:08;5.80;;;1.97;;
12369;SDS011;6249;52.128;9.986;2023-04-25T16:58:29;6.13;;;1.80;;
12369;SDS011;6249;52.128;9.986;2023-04-25T17:01:52;5.10;;;1.50;;
12369;SDS011;6249;52.128;9.986;2023-04-25T17:05:12;5.47;;;1.47;;
12369;SDS011;6249;52.128;9.986;2023-04-25T17:08:33;3.63;;;1.40;;
12369;SDS011;6249;52.128;9.986;2023-04-25T17:11:54;6.87;;;1.27;;
12369;SDS011;6249;52.128;9.986;2023-04-25T17:15:15;9.57;;;1.50;;
12369;SDS011;6249;52.128;9.986;2023-04-25T17:18:35;7.30;;;1.60;;
12369;SDS011;6249;52.128;9.986;2023-04-25T17:21:56;5.90;;;1.87;;
12369;SDS011;6249;52.128;9.986;2023-04-25T17:25:17;9.90;;;2.20;;
12369;SDS011;6249;52.128;9.986;2023-04-25T17:28:37;7.43;;;1.90;;
12369;SDS011;6249;52.128;9.986;2023-04-25T17:31:58;7.10;;;1.77;;
12369;SDS011;6249;52.128;9.986;2023-04-25T17:35:22;8.40;;;2.10;;
12369;SDS011;6249;52.128;9.986;2023-04-25T17:38:42;5.53;;;1.70;;
12369;SDS011;6249;52.128;9.986;2023-04-25T17:42:03;9.93;;;1.67;;
12369;SDS011;6249;52.128;9.986;2023-04-25T17:45:27;11.73;;;3.03;;
12369;SDS011;6249;52.128;9.986;2023-04-25T17:48:55;8.63;;;2.67;;
12369;SDS011;6249;52.128;9.986;2023-04-25T17:52:19;9.80;;;3.80;;
12369;SDS011;6249;52.128;9.986;2023-04-25T17:55:45;9.37;;;4.10;;
12369;SDS011;6249;52.128;9.986;2023-04-25T17:59:07;11.00;;;3.63;;
12369;SDS011;6249;52.128;9.986;2023-04-25T18:02:28;7.27;;;3.40;;
12369;SDS011;6249;52.128;9.986;2023-04-25T18:05:49;8.80;;;4.00;;
12369;SDS011;6249;52.128;9.986;2023-04-25T18:09:14;8.40;;;2.60;;
12369;SDS011;6249;52.128;9.986;2023-04-25T18:12:35;9.20;;;2.40;;
12369;SDS011;6249;52.128;9.986;2023-04-25T18:15:58;7.80;;;2.10;;
12369;SDS011;6249;52.128;9.986;2023-04-25T18:19:18;8.80;;;2.40;;
12369;SDS011;6249;52.128;9.986;2023-04-25T18:22:43;8.83;;;3.13;;
12369;SDS011;6249;52.128;9.986;2023-04-25T18:26:05;6.17;;;1.97;;
12369;SDS011;6249;52.128;9.986;2023-04-25T18:29:28;10.67;;;2.77;;
12369;SDS011;6249;52.128;9.986;2023-04-25T18:32:48;6.90;;;1.70;;
12369;SDS011;6249;52.128;9.986;2023-04-25T18:36:11;15.43;;;2.00;;
12369;SDS011;6249;52.128;9.986;2023-04-25T18:39:32;7.80;;;2.60;;
12369;SDS011;6249;52.128;9.986;2023-04-25T18:42:52;11.17;;;2.40;;
12369;SDS011;6249;52.128;9.986;2023-04-25T18:46:13;7.60;;;1.50;;
12369;SDS011;6249;52.128;9.986;2023-04-25T18:49:38;8.40;;;2.40;;
12369;SDS011;6249;52.128;9.986;2023-04-25T18:52:59;6.07;;;1.83;;
12369;SDS011;6249;52.128;9.986;2023-04-25T18:56:21;11.60;;;2.13;;
12369;SDS011;6249;52.128;9.986;2023-04-25T18:59:44;7.43;;;1.80;;
12369;SDS011;6249;52.128;9.986;2023-04-25T19:03:07;11.73;;;1.80;;
12369;SDS011;6249;52.128;9.986;2023-04-25T19:06:28;11.63;;;2.13;;
12369;SDS011;6249;52.128;9.986;2023-04-25T19:09:49;6.57;;;2.03;;
12369;SDS011;6249;52.128;9.986;2023-04-25T19:13:09;11.43;;;1.97;;
12369;SDS011;6249;52.128;9.986;2023-04-25T19:16:30;12.23;;;2.40;;
12369;SDS011;6249;52.128;9.986;2023-04-25T19:19:57;11.77;;;2.17;;
12369;SDS011;6249;52.128;9.986;2023-04-25T19:23:18;7.47;;;1.90;;
12369;SDS011;6249;52.128;9.986;2023-04-25T19:26:38;7.53;;;2.10;;
12369;SDS011;6249;52.128;9.986;2023-04-25T19:30:01;7.33;;;2.10;;
12369;SDS011;6249;52.128;9.986;2023-04-25T19:33:27;9.27;;;1.87;;
12369;SDS011;6249;52.128;9.986;2023-04-25T19:36:50;4.33;;;1.70;;
12369;SDS011;6249;52.128;9.986;2023-04-25T19:40:15;8.37;;;2.10;;
12369;SDS011;6249;52.128;9.986;2023-04-25T19:43:36;7.63;;;2.00;;
12369;SDS011;6249;52.128;9.986;2023-04-25T19:46:57;8.43;;;1.60;;
12369;SDS011;6249;52.128;9.986;2023-04-25T19:50:18;8.10;;;2.03;;
12369;SDS011;6249;52.128;9.986;2023-04-25T19:53:40;6.53;;;3.00;;
12369;SDS011;6249;52.128;9.986;2023-04-25T19:57:05;4.67;;;1.83;;
12369;SDS011;6249;52.128;9.986;2023-04-25T20:00:26;7.50;;;2.17;;
12369;SDS011;6249;52.128;9.986;2023-04-25T20:03:47;7.30;;;1.93;;
12369;SDS011;6249;52.128;9.986;2023-04-25T20:07:10;12.80;;;3.00;;
12369;SDS011;6249;52.128;9.986;2023-04-25T20:10:34;7.37;;;1.80;;
12369;SDS011;6249;52.128;9.986;2023-04-25T20:13:59;9.23;;;2.00;;
12369;SDS011;6249;52.128;9.986;2023-04-25T20:17:20;7.87;;;2.30;;
12369;SDS011;6249;52.128;9.986;2023-04-25T20:20:43;11.83;;;2.83;;
12369;SDS011;6249;52.128;9.986;2023-04-25T20:24:08;6.07;;;1.70;;
12369;SDS011;6249;52.128;9.986;2023-04-25T20:27:30;17.60;;;2.67;;
12369;SDS011;6249;52.128;9.986;2023-04-25T20:30:51;9.83;;;1.83;;
12369;SDS011;6249;52.128;9.986;2023-04-25T20:34:12;12.17;;;1.90;;
12369;SDS011;6249;52.128;9.986;2023-04-25T20:37:33;8.03;;;1.60;;
12369;SDS011;6249;52.128;9.986;2023-04-25T20:40:56;11.60;;;2.00;;